aviador You're here:

OIAW Decoded Metar

AHWAZ in IRAN
Report Time2017-09-24 00:50:00
UTC Time2017-09-24 01:30:47
Flight Rules vfr VFR
WindVRB at 02 kt
Visibility9999 m
Phenomena:N/A
Clouds:N/A
Expected CloudBase > 5,600 ft AGL from Temp-Dew spread
CeilingNone
Temp25°C (ISA +10)
Dew Point11°C (42% RH)
AAT24.7°C
QNH1005 hPa
Density Alt1,693 ft
Elevation72 ft
Report Wrong Elevation
Raw Report
METAR OIAW 240050Z VRB02KT CAVOK 25/11 Q1005=

Extra information for OIAW:More info

Metar Taf Metar & Taf Last 4 Metars F.Rules Stats Wind Profile Meteogram Temp Stats Airport Information Weather charts Add Link Nearby VenuesMetar ALERT Operation Metar Decoded Social comments